Rucker, Arizona
Current Conditions -  °F | °C
As of 6:51 AM on Thursday 23 Oct 2014 (Local Time) from KSAD Reporting Station
Clear Clear  
Wind Chill: 55°   Ceiling: Unl
Heat Index: 55°   Visibility: 10mi
Dew Point: 50°   Wind: 5mph
Humidity: 83%   Direction: 200°SSW
Pressure: 30.13"   Gusts: NA
Location:  32.5598°N, 110.08°W
Report Text: KSAD 231351Z AUTO 20004KT 10SM CLR 13/10 A3013 RMK AO2 SLP172 T01280100
Loading
Personal Weather Stations






























Interactive Weather Map
Tropical Storm Tracking
New forecast layout! Learn more

10-Day Weather Forecast

Advertisements
Track Severe Weather on mobile